createdAt,value
2022-12-20T00:04:07.316Z,46.9
2022-12-20T00:09:07.369Z,46.9
2022-12-20T00:14:07.460Z,46.8
2022-12-20T00:19:07.295Z,46.3
2022-12-20T00:24:07.446Z,45.6
2022-12-20T00:29:07.360Z,43.5
2022-12-20T00:34:07.789Z,43.3
2022-12-20T00:39:07.349Z,43.3
2022-12-20T00:44:08.304Z,43.3
2022-12-20T00:49:07.387Z,44.5
2022-12-20T00:54:07.352Z,44.3
2022-12-20T00:59:07.435Z,44.5
2022-12-20T01:04:07.322Z,44.5
2022-12-20T01:09:07.393Z,44.5
2022-12-20T01:14:07.335Z,45.6
2022-12-20T01:19:07.941Z,45.6
2022-12-20T01:24:07.446Z,45.6
2022-12-20T01:29:07.637Z,47.7
2022-12-20T01:34:07.340Z,47.7
2022-12-20T01:39:07.328Z,47.7
2022-12-20T01:44:07.334Z,47.7
2022-12-20T01:49:07.366Z,47.4
2022-12-20T01:54:07.306Z,47.4
2022-12-20T01:59:07.347Z,47.1
2022-12-20T02:04:07.314Z,46.8
2022-12-20T02:09:07.285Z,46.8
2022-12-20T02:14:07.325Z,46.6
2022-12-20T02:19:07.342Z,46.6
2022-12-20T02:24:07.461Z,46.2
2022-12-20T02:29:07.361Z,45.7
2022-12-20T02:34:07.327Z,46.2
2022-12-20T02:39:07.320Z,46.6
2022-12-20T02:44:07.945Z,46.6
2022-12-20T02:49:07.300Z,45.7
2022-12-20T02:54:07.850Z,46.6
2022-12-20T02:59:07.358Z,46.6
2022-12-20T03:04:07.411Z,46.6
2022-12-20T03:09:07.623Z,45.1
2022-12-20T03:14:07.479Z,44.3
2022-12-20T03:19:07.429Z,44.3
2022-12-20T03:24:07.499Z,45.1
2022-12-20T03:29:07.520Z,44.3
2022-12-20T03:34:07.475Z,44.3
2022-12-20T03:39:07.441Z,44.3
2022-12-20T03:44:07.616Z,44.3
2022-12-20T03:49:07.400Z,42.4
2022-12-20T03:54:07.441Z,41.9
2022-12-20T03:59:07.396Z,40.7
2022-12-20T04:04:07.392Z,40.7
2022-12-20T04:09:07.390Z,41.5
2022-12-20T04:14:07.436Z,41.5
2022-12-20T04:19:07.442Z,41.9
2022-12-20T04:24:07.873Z,43.1
2022-12-20T04:29:07.467Z,43.1
2022-12-20T04:34:07.424Z,43.1
2022-12-20T04:39:07.480Z,43.1
2022-12-20T04:44:07.443Z,43.1
2022-12-20T04:49:07.482Z,42.5
2022-12-20T04:54:07.499Z,42.5
2022-12-20T04:59:07.661Z,41.8
2022-12-20T05:04:07.532Z,41.8
2022-12-20T05:09:07.397Z,42.5
2022-12-20T05:14:07.458Z,41.8
2022-12-20T05:19:07.469Z,41.7
2022-12-20T05:24:07.527Z,40
2022-12-20T05:29:07.378Z,39.5
2022-12-20T05:34:07.380Z,39.5
2022-12-20T05:39:07.737Z,40.8
2022-12-20T05:44:07.384Z,40.8
2022-12-20T05:49:07.425Z,40.8
2022-12-20T05:54:07.383Z,42.5
2022-12-20T05:59:07.450Z,42.5
2022-12-20T06:04:07.550Z,42.5
2022-12-20T06:09:07.421Z,42.5
2022-12-20T06:14:07.549Z,40.4
2022-12-20T06:19:07.475Z,39.7
2022-12-20T06:24:07.469Z,39.7
2022-12-20T06:29:07.462Z,39.3
2022-12-20T06:34:07.446Z,39.3
2022-12-20T06:39:11.144Z,39.3
2022-12-20T06:44:07.448Z,39.2
2022-12-20T06:49:07.424Z,39.5
2022-12-20T06:54:07.434Z,39.5
2022-12-20T06:59:07.942Z,39.5
2022-12-20T07:04:07.474Z,39.5
2022-12-20T07:09:07.417Z,39.5
2022-12-20T07:14:07.436Z,39.5
2022-12-20T07:19:07.376Z,39.9
2022-12-20T07:24:07.565Z,39.9
2022-12-20T07:29:15.136Z,39.9
2022-12-20T07:34:07.428Z,39.2
2022-12-20T07:39:07.591Z,39.2
2022-12-20T07:44:07.417Z,39.2
2022-12-20T07:49:07.418Z,38.9
2022-12-20T07:54:07.424Z,38.4
2022-12-20T07:59:07.409Z,37.5
2022-12-20T08:04:07.515Z,37.1
2022-12-20T08:09:07.411Z,37.1
2022-12-20T08:14:07.387Z,37.1
2022-12-20T08:19:08.041Z,37.1
2022-12-20T08:24:07.526Z,34.3
2022-12-20T08:29:07.475Z,34.2
2022-12-20T08:34:07.398Z,33.2
2022-12-20T08:39:07.456Z,33.2
2022-12-20T08:44:07.488Z,33.1
2022-12-20T08:49:07.490Z,32.8
2022-12-20T08:54:07.422Z,32.1
2022-12-20T08:59:07.423Z,32.1
2022-12-20T09:04:07.452Z,32.1
2022-12-20T09:09:07.382Z,32.1
2022-12-20T09:14:07.521Z,31.1
2022-12-20T09:19:07.380Z,31.1
2022-12-20T09:24:07.534Z,30.3
2022-12-20T09:29:07.542Z,30.3
2022-12-20T09:34:07.407Z,30.2
2022-12-20T09:39:07.416Z,29.6
2022-12-20T09:44:07.412Z,29.6
2022-12-20T09:49:07.489Z,29.6
2022-12-20T09:54:07.678Z,28.1
2022-12-20T09:59:07.522Z,28.1
2022-12-20T10:04:07.481Z,28.1
2022-12-20T10:09:07.425Z,28.1
2022-12-20T10:14:07.679Z,28.1
2022-12-20T10:19:07.424Z,27.1
2022-12-20T10:24:07.512Z,25.9
2022-12-20T10:29:07.565Z,25.8
2022-12-20T10:34:07.405Z,25.8
2022-12-20T10:39:07.454Z,25.6
2022-12-20T10:44:07.928Z,25.4
2022-12-20T10:49:07.429Z,25.1
2022-12-20T10:54:07.412Z,25.1
2022-12-20T10:59:07.639Z,24.7
2022-12-20T11:04:07.603Z,24.7
2022-12-20T11:09:07.432Z,24.8
2022-12-20T11:14:38.624Z,24.7
2022-12-20T11:19:30.322Z,24.7
2022-12-20T11:24:30.365Z,24.8
2022-12-20T11:29:30.305Z,24.8
2022-12-20T11:34:30.263Z,24.8
2022-12-20T11:39:30.403Z,24.8
2022-12-20T11:44:30.269Z,24.6
2022-12-20T11:49:30.280Z,24.6
2022-12-20T11:54:30.294Z,24.6
2022-12-20T11:59:30.415Z,23.8
2022-12-20T12:04:30.289Z,23.1
2022-12-20T12:09:30.281Z,22.5
2022-12-20T12:14:30.320Z,22.5
2022-12-20T12:19:30.272Z,22.1
2022-12-20T12:24:30.424Z,21.7
2022-12-20T12:29:30.303Z,21.7
2022-12-20T12:34:30.302Z,21.7
2022-12-20T12:39:30.289Z,21.5
2022-12-20T12:44:30.413Z,20.6
2022-12-20T12:49:31.860Z,20.6
2022-12-20T12:54:30.387Z,20.6
2022-12-20T12:59:30.677Z,21.5
2022-12-20T13:04:53.447Z,21.5
2022-12-20T13:09:30.585Z,21.5
2022-12-20T13:14:30.368Z,22
2022-12-20T13:19:30.365Z,22.8
2022-12-20T13:24:30.868Z,22.8
2022-12-20T13:29:30.377Z,22
2022-12-20T13:34:30.368Z,22
2022-12-20T13:39:30.331Z,22
2022-12-20T13:44:30.322Z,21.3
2022-12-20T13:49:30.349Z,21.3
2022-12-20T13:54:30.654Z,21.3
2022-12-20T13:59:30.311Z,20.7
2022-12-20T14:04:30.347Z,21.3
2022-12-20T14:09:30.511Z,22.8
2022-12-20T14:14:30.326Z,22.8
2022-12-20T14:19:30.302Z,24.4
2022-12-20T14:24:30.541Z,24.5
2022-12-20T14:29:30.360Z,25
2022-12-20T14:34:34.106Z,25
2022-12-20T14:39:30.361Z,24.5
2022-12-20T14:44:30.291Z,24.8
2022-12-20T14:49:30.361Z,24.5
2022-12-20T14:55:06.090Z,24.4
2022-12-20T14:59:30.325Z,23.8
2022-12-20T15:04:30.348Z,23.5
2022-12-20T15:09:30.331Z,23.8
2022-12-20T15:14:30.353Z,24
2022-12-20T15:19:30.329Z,24
2022-12-20T15:24:30.589Z,24
2022-12-20T15:29:30.539Z,24
2022-12-20T15:34:30.405Z,24.1
2022-12-20T15:39:30.425Z,24.7
2022-12-20T15:44:30.329Z,25.4
2022-12-20T15:49:30.306Z,24.7
2022-12-20T15:54:30.614Z,25.6
2022-12-20T15:59:58.726Z,25.8
2022-12-20T16:04:30.513Z,25.8
2022-12-20T16:09:30.325Z,26.7
2022-12-20T16:14:30.365Z,27.5
2022-12-20T16:19:30.345Z,26.7
2022-12-20T16:24:30.421Z,27.5
2022-12-20T16:29:30.329Z,26.7
2022-12-20T16:34:30.347Z,27.5
2022-12-20T16:39:30.372Z,27.5
2022-12-20T16:44:30.309Z,28.5
2022-12-20T16:49:30.417Z,29.3
2022-12-20T16:54:30.371Z,30.9
2022-12-20T16:59:30.538Z,29.9
2022-12-20T17:04:30.357Z,30.9
2022-12-20T17:09:31.648Z,31.1
2022-12-20T17:14:30.370Z,32.6
2022-12-20T17:19:30.378Z,32.9
2022-12-20T17:24:30.468Z,33.5
2022-12-20T17:29:30.404Z,37.2
2022-12-20T17:34:30.497Z,37.5
2022-12-20T17:39:30.454Z,37.5
2022-12-20T17:44:30.389Z,37.5
2022-12-20T17:49:30.456Z,37.2
2022-12-20T17:54:39.284Z,35.9
2022-12-20T17:59:30.419Z,35.8
2022-12-20T18:04:30.445Z,35.6
2022-12-20T18:09:30.463Z,35
2022-12-20T18:14:30.379Z,32.6
2022-12-20T18:19:30.779Z,32.6
2022-12-20T18:24:30.422Z,32.6
2022-12-20T18:29:30.383Z,32.6
2022-12-20T18:34:30.404Z,44.9
2022-12-20T18:39:30.502Z,44.9
2022-12-20T18:44:30.418Z,44.9
2022-12-20T18:49:30.371Z,44.9
2022-12-20T18:54:30.473Z,33.7
2022-12-20T18:59:30.379Z,32.2
2022-12-20T19:04:30.429Z,30.5
2022-12-20T19:09:30.405Z,30.5
2022-12-20T19:14:30.380Z,30.5
2022-12-20T19:19:30.481Z,32.1
2022-12-20T19:24:30.432Z,32.1
2022-12-20T19:29:30.460Z,32.7
2022-12-20T19:34:30.480Z,33.3
2022-12-20T19:39:30.506Z,33.3
2022-12-20T19:44:30.387Z,32.7
2022-12-20T19:49:30.376Z,33.8
2022-12-20T19:54:30.390Z,33.8
2022-12-20T19:59:30.471Z,33.8
2022-12-20T20:04:30.476Z,33.8
2022-12-20T20:09:30.556Z,35
2022-12-20T20:14:30.485Z,36.1
2022-12-20T20:19:30.388Z,36.4
2022-12-20T20:24:30.496Z,36.9
2022-12-20T20:29:30.395Z,36.9
2022-12-20T20:34:30.505Z,38.2
2022-12-20T20:39:30.503Z,38.2
2022-12-20T20:44:30.458Z,36.9
2022-12-20T20:49:30.491Z,35.2
2022-12-20T20:54:30.423Z,35.2
2022-12-20T20:59:30.413Z,35.2
2022-12-20T21:04:30.489Z,39.7
2022-12-20T21:09:30.441Z,40.6
2022-12-20T21:15:02.241Z,124.4
2022-12-20T21:19:30.548Z,124.4
2022-12-20T21:24:31.621Z,124.4
2022-12-20T21:29:38.232Z,124.4
2022-12-20T21:34:38.219Z,40.2
2022-12-20T21:39:38.377Z,38.7
2022-12-20T21:44:38.276Z,37.9
2022-12-20T21:49:38.179Z,37.4
2022-12-20T21:54:38.248Z,37
2022-12-20T21:59:39.255Z,37
2022-12-20T22:04:38.208Z,34.7
2022-12-20T22:09:38.292Z,34.1
2022-12-20T22:14:38.213Z,34.1
2022-12-20T22:19:38.214Z,34.1
2022-12-20T22:24:38.381Z,32.4
2022-12-20T22:29:38.260Z,31
2022-12-20T22:34:38.232Z,30.3
2022-12-20T22:39:38.236Z,30.3
2022-12-20T22:44:38.327Z,30.3
2022-12-20T22:49:38.476Z,30
2022-12-20T22:54:38.305Z,30
2022-12-20T22:59:38.221Z,30
2022-12-20T23:04:38.277Z,30
2022-12-20T23:09:38.283Z,29.7
2022-12-20T23:14:38.432Z,29.7
2022-12-20T23:19:38.443Z,29.4
2022-12-20T23:24:38.395Z,29.4
2022-12-20T23:29:38.590Z,29.4
2022-12-20T23:34:39.014Z,29.7
2022-12-20T23:39:38.406Z,31.3
2022-12-20T23:44:39.136Z,31.3
2022-12-20T23:49:38.537Z,31.3
2022-12-20T23:54:38.355Z,33.6
2022-12-20T23:59:38.323Z,33.6
